createdAt,value
2022-12-25T00:01:40.364Z,6.19
2022-12-25T00:04:08.321Z,6.18
2022-12-25T00:06:35.854Z,6.18
2022-12-25T00:09:02.444Z,6.11
2022-12-25T00:11:29.299Z,6.08
2022-12-25T00:13:56.215Z,6.00
2022-12-25T00:16:25.171Z,6.03
2022-12-25T00:18:52.093Z,5.99
2022-12-25T00:21:20.973Z,5.93
2022-12-25T00:23:47.662Z,5.87
2022-12-25T00:26:16.554Z,5.99
2022-12-25T00:28:43.239Z,5.95
2022-12-25T00:31:12.031Z,6.00
2022-12-25T00:33:39.841Z,6.00
2022-12-25T00:36:07.923Z,6.07
2022-12-25T00:38:37.463Z,6.04
2022-12-25T00:41:05.469Z,6.06
2022-12-25T00:43:31.991Z,6.00
2022-12-25T00:46:01.145Z,5.96
2022-12-25T00:48:28.703Z,5.82
2022-12-25T00:50:55.922Z,5.95
2022-12-25T00:53:22.828Z,5.94
2022-12-25T00:55:55.271Z,5.92
2022-12-25T00:58:22.277Z,5.93
2022-12-25T01:00:49.448Z,5.83
2022-12-25T01:03:16.758Z,5.81
2022-12-25T01:05:44.026Z,5.88
2022-12-25T01:08:10.633Z,5.94
2022-12-25T01:10:37.331Z,5.90
2022-12-25T01:13:05.218Z,5.92
2022-12-25T01:15:31.732Z,5.91
2022-12-25T01:17:58.275Z,5.93
2022-12-25T01:20:24.818Z,5.93
2022-12-25T01:22:51.411Z,5.79
2022-12-25T01:25:17.987Z,5.97
2022-12-25T01:27:44.652Z,5.87
2022-12-25T01:30:12.969Z,5.83
2022-12-25T01:32:39.643Z,5.79
2022-12-25T01:35:06.873Z,5.76
2022-12-25T01:37:33.661Z,5.77
2022-12-25T01:40:00.305Z,5.82
2022-12-25T01:42:27.099Z,5.88
2022-12-25T01:45:32.988Z,5.91
2022-12-25T01:48:04.921Z,5.77
2022-12-25T01:50:32.455Z,5.84
2022-12-25T01:52:59.076Z,5.82
2022-12-25T01:55:26.556Z,5.77
2022-12-25T01:57:53.297Z,5.83
2022-12-25T02:00:20.414Z,5.89
2022-12-25T02:02:48.202Z,5.94
2022-12-25T02:05:22.879Z,5.93
2022-12-25T02:07:50.162Z,6.02
2022-12-25T02:10:18.282Z,5.94
2022-12-25T02:12:45.668Z,6.12
2022-12-25T02:15:15.382Z,6.10
2022-12-25T02:17:52.332Z,6.20
2022-12-25T02:20:46.649Z,6.22
2022-12-25T02:23:33.335Z,6.19
2022-12-25T02:26:14.959Z,6.25
2022-12-25T02:28:48.860Z,6.28
2022-12-25T02:31:19.052Z,6.23
2022-12-25T02:33:52.847Z,6.25
2022-12-25T02:36:23.144Z,6.17
2022-12-25T02:38:55.152Z,6.37
2022-12-25T02:41:22.323Z,6.39
2022-12-25T02:43:50.294Z,6.42
2022-12-25T02:46:21.637Z,6.48
2022-12-25T02:48:53.282Z,6.38
2022-12-25T02:51:25.842Z,6.44
2022-12-25T02:53:55.415Z,6.49
2022-12-25T02:56:24.576Z,6.50
2022-12-25T02:58:53.188Z,6.53
2022-12-25T03:01:23.396Z,6.55
2022-12-25T03:03:53.203Z,6.62
2022-12-25T03:06:22.389Z,6.61
2022-12-25T03:08:53.362Z,6.62
2022-12-25T03:11:20.175Z,6.45
2022-12-25T03:13:49.832Z,6.64
2022-12-25T03:16:18.316Z,6.64
2022-12-25T03:18:46.707Z,6.65
2022-12-25T03:21:13.510Z,6.67
2022-12-25T03:23:43.796Z,6.71
2022-12-25T03:26:10.566Z,6.71
2022-12-25T03:28:37.078Z,6.77
2022-12-25T03:31:14.813Z,6.80
2022-12-25T03:33:53.651Z,6.81
2022-12-25T03:36:31.600Z,6.82
2022-12-25T03:39:05.511Z,6.83
2022-12-25T03:41:40.833Z,6.77
2022-12-25T03:44:12.681Z,6.72
2022-12-25T03:46:43.274Z,6.83
2022-12-25T03:49:17.545Z,6.83
2022-12-25T03:51:46.285Z,6.84
2022-12-25T03:54:14.158Z,6.88
2022-12-25T03:56:42.676Z,6.90
2022-12-25T03:59:09.267Z,6.90
2022-12-25T04:01:35.931Z,6.91
2022-12-25T04:04:02.578Z,6.79
2022-12-25T04:06:32.931Z,6.94
2022-12-25T04:08:59.646Z,6.99
2022-12-25T04:11:26.169Z,6.91
2022-12-25T04:13:52.704Z,7.03
2022-12-25T04:16:19.304Z,6.92
2022-12-25T04:18:46.020Z,6.99
2022-12-25T04:21:12.599Z,6.97
2022-12-25T04:23:40.461Z,7.00
2022-12-25T04:26:06.985Z,6.87
2022-12-25T04:28:33.527Z,7.02
2022-12-25T04:31:00.538Z,6.96
2022-12-25T04:33:27.349Z,6.99
2022-12-25T04:35:53.896Z,7.14
2022-12-25T04:38:20.459Z,7.12
2022-12-25T04:40:48.332Z,7.18
2022-12-25T04:43:14.864Z,6.91
2022-12-25T04:45:41.415Z,7.15
2022-12-25T04:48:07.934Z,7.17
2022-12-25T04:50:34.623Z,7.19
2022-12-25T04:53:01.133Z,7.22
2022-12-25T04:55:27.619Z,7.23
2022-12-25T04:57:55.488Z,7.29
2022-12-25T05:00:22.166Z,7.14
2022-12-25T05:02:48.953Z,7.34
2022-12-25T05:05:15.714Z,7.27
2022-12-25T05:07:42.245Z,7.27
2022-12-25T05:10:09.247Z,7.24
2022-12-25T05:12:35.788Z,7.27
2022-12-25T05:15:04.183Z,7.28
2022-12-25T05:17:30.706Z,7.27
2022-12-25T05:19:57.262Z,7.30
2022-12-25T05:22:23.878Z,7.37
2022-12-25T05:24:50.409Z,7.38
2022-12-25T05:27:16.970Z,7.38
2022-12-25T05:29:43.618Z,7.30
2022-12-25T05:32:11.509Z,7.28
2022-12-25T05:34:38.039Z,7.28
2022-12-25T05:37:04.609Z,7.31
2022-12-25T05:39:31.238Z,7.37
2022-12-25T05:41:57.789Z,7.36
2022-12-25T05:44:24.409Z,7.38
2022-12-25T05:46:51.026Z,7.39
2022-12-25T05:49:18.946Z,7.44
2022-12-25T05:51:45.456Z,7.43
2022-12-25T05:54:11.992Z,7.43
2022-12-25T05:56:38.669Z,7.49
2022-12-25T05:59:05.377Z,7.46
2022-12-25T06:01:31.960Z,7.46
2022-12-25T06:03:58.575Z,7.44
2022-12-25T06:06:26.586Z,7.40
2022-12-25T06:08:53.684Z,7.30
2022-12-25T06:11:20.311Z,7.27
2022-12-25T06:13:49.626Z,7.27
2022-12-25T06:16:16.204Z,7.25
2022-12-25T06:18:44.732Z,7.31
2022-12-25T06:21:13.686Z,7.38
2022-12-25T06:23:42.013Z,7.42
2022-12-25T06:26:11.047Z,7.40
2022-12-25T06:28:37.755Z,7.42
2022-12-25T06:31:08.229Z,7.44
2022-12-25T06:33:35.051Z,7.48
2022-12-25T06:36:05.188Z,7.25
2022-12-25T06:38:31.776Z,7.38
2022-12-25T06:41:04.600Z,7.32
2022-12-25T06:43:31.192Z,7.18
2022-12-25T06:46:02.674Z,7.34
2022-12-25T06:48:29.455Z,7.24
2022-12-25T06:50:55.968Z,7.33
2022-12-25T06:53:22.525Z,7.33
2022-12-25T06:55:49.193Z,7.38
2022-12-25T06:58:17.103Z,7.38
2022-12-25T07:00:43.732Z,7.27
2022-12-25T07:03:15.477Z,7.40
2022-12-25T07:05:42.096Z,7.41
2022-12-25T07:08:08.590Z,7.43
2022-12-25T07:10:35.169Z,7.46
2022-12-25T07:13:01.704Z,7.54
2022-12-25T07:15:29.618Z,7.50
2022-12-25T07:17:56.176Z,7.82
2022-12-25T07:20:22.762Z,7.85
2022-12-25T07:22:49.393Z,7.88
2022-12-25T07:25:16.237Z,7.89
2022-12-25T07:27:42.775Z,7.92
2022-12-25T07:30:10.447Z,8.01
2022-12-25T07:32:38.346Z,8.01
2022-12-25T07:35:05.715Z,8.03
2022-12-25T07:37:32.226Z,8.15
2022-12-25T07:39:58.782Z,8.37
2022-12-25T07:42:25.775Z,8.45
2022-12-25T07:44:56.624Z,8.33
2022-12-25T07:47:23.176Z,8.61
2022-12-25T07:49:51.185Z,8.66
2022-12-25T07:52:17.835Z,8.71
2022-12-25T07:54:44.346Z,8.81
2022-12-25T07:57:10.884Z,8.74
2022-12-25T07:59:37.380Z,9.05
2022-12-25T08:02:04.143Z,8.91
2022-12-25T08:04:31.077Z,9.18
2022-12-25T08:06:58.940Z,9.09
2022-12-25T08:09:25.571Z,9.23
2022-12-25T08:11:52.177Z,9.28
2022-12-25T08:14:18.696Z,9.32
2022-12-25T08:16:45.326Z,9.38
2022-12-25T08:19:11.876Z,9.36
2022-12-25T08:21:38.677Z,9.36
2022-12-25T08:24:06.983Z,9.45
2022-12-25T08:26:33.676Z,9.52
2022-12-25T08:29:00.171Z,9.52
2022-12-25T08:31:28.500Z,9.45
2022-12-25T08:33:57.059Z,9.53
2022-12-25T08:36:24.084Z,9.61
2022-12-25T08:38:53.460Z,9.58
2022-12-25T08:41:23.621Z,9.64
2022-12-25T08:43:50.376Z,9.69
2022-12-25T08:46:17.292Z,9.70
2022-12-25T08:48:44.764Z,9.73
2022-12-25T08:51:13.170Z,9.76
2022-12-25T08:53:39.862Z,9.76
2022-12-25T08:56:06.870Z,9.76
2022-12-25T08:58:34.800Z,9.71
2022-12-25T09:01:01.445Z,9.69
2022-12-25T09:03:28.315Z,9.79
2022-12-25T09:05:56.134Z,9.64
2022-12-25T09:08:22.797Z,9.77
2022-12-25T09:10:49.835Z,9.86
2022-12-25T09:13:16.690Z,9.93
2022-12-25T09:15:44.809Z,9.92
2022-12-25T09:18:11.448Z,9.91
2022-12-25T09:20:38.174Z,9.84
2022-12-25T09:23:09.910Z,9.87
2022-12-25T09:25:38.339Z,9.97
2022-12-25T09:28:05.048Z,9.92
2022-12-25T09:30:31.697Z,9.88
2022-12-25T09:32:59.570Z,9.87
2022-12-25T09:35:26.221Z,9.79
2022-12-25T09:37:52.872Z,9.84
2022-12-25T09:40:21.497Z,9.78
2022-12-25T09:42:49.126Z,9.96
2022-12-25T09:45:19.629Z,9.82
2022-12-25T09:47:48.531Z,9.75
2022-12-25T09:50:21.195Z,9.89
2022-12-25T09:52:53.448Z,9.95
2022-12-25T09:55:22.852Z,9.95
2022-12-25T09:57:51.316Z,9.93
2022-12-25T10:00:20.582Z,9.98
2022-12-25T10:03:03.994Z,9.96
2022-12-25T10:05:56.687Z,9.93
2022-12-25T10:08:33.653Z,9.99
2022-12-25T10:11:13.462Z,10.08
2022-12-25T10:13:59.276Z,9.82
2022-12-25T10:16:33.077Z,9.95
2022-12-25T10:19:09.603Z,9.89
2022-12-25T10:21:38.551Z,9.86
2022-12-25T10:24:17.730Z,9.91
2022-12-25T10:26:45.183Z,9.74
2022-12-25T10:29:15.146Z,9.93
2022-12-25T10:31:45.248Z,9.96
2022-12-25T10:34:13.863Z,10.00
2022-12-25T10:36:43.770Z,10.03
2022-12-25T10:39:16.648Z,10.01
2022-12-25T10:42:08.272Z,10.02
2022-12-25T10:44:36.277Z,9.99
2022-12-25T10:47:10.049Z,10.02
2022-12-25T10:49:42.329Z,10.06
2022-12-25T10:52:27.125Z,9.90
2022-12-25T10:54:54.811Z,9.96
2022-12-25T10:57:23.470Z,9.93
2022-12-25T10:59:52.472Z,9.96
2022-12-25T11:02:24.463Z,9.98
2022-12-25T11:04:58.120Z,9.97
2022-12-25T11:07:26.439Z,9.91
2022-12-25T11:09:57.823Z,9.65
2022-12-25T11:12:31.887Z,9.92
2022-12-25T11:15:00.540Z,9.90
2022-12-25T11:17:28.011Z,9.91
2022-12-25T11:19:56.928Z,9.95
2022-12-25T11:22:24.042Z,9.96
2022-12-25T11:24:52.542Z,10.00
2022-12-25T11:27:23.726Z,9.67
2022-12-25T11:29:52.690Z,10.04
2022-12-25T11:32:25.956Z,10.06
2022-12-25T11:34:53.485Z,10.00
2022-12-25T11:37:24.240Z,10.13
2022-12-25T11:39:52.263Z,10.22
2022-12-25T11:42:25.246Z,10.28
2022-12-25T11:44:56.626Z,10.21
2022-12-25T11:47:30.930Z,10.47
2022-12-25T11:50:02.544Z,10.44
2022-12-25T11:52:34.684Z,10.32
2022-12-25T11:55:08.324Z,10.55
2022-12-25T11:57:37.713Z,10.58
2022-12-25T12:00:07.796Z,10.65
2022-12-25T12:02:40.433Z,10.69
2022-12-25T12:05:16.241Z,10.67
2022-12-25T12:07:52.328Z,10.71
2022-12-25T12:10:28.119Z,10.62
2022-12-25T12:13:02.340Z,10.77
2022-12-25T12:15:34.533Z,10.68
2022-12-25T12:18:20.449Z,10.94
2022-12-25T12:20:59.183Z,10.90
2022-12-25T12:23:27.310Z,10.94
2022-12-25T12:25:56.180Z,10.95
2022-12-25T12:28:25.785Z,10.98
2022-12-25T12:31:02.060Z,11.01
2022-12-25T12:33:34.667Z,11.06
2022-12-25T12:36:03.996Z,11.09
2022-12-25T12:38:32.528Z,11.12
2022-12-25T12:41:02.339Z,11.12
2022-12-25T12:43:34.768Z,11.12
2022-12-25T12:46:06.389Z,11.20
2022-12-25T12:48:40.610Z,11.18
2022-12-25T12:51:09.682Z,11.19
2022-12-25T12:53:37.816Z,11.06
2022-12-25T12:56:17.714Z,11.23
2022-12-25T12:58:46.939Z,11.18
2022-12-25T13:01:29.519Z,10.98
2022-12-25T13:04:30.608Z,11.22
2022-12-25T13:07:10.067Z,11.22
2022-12-25T13:09:53.055Z,11.16
2022-12-25T13:12:22.376Z,11.25
2022-12-25T13:14:49.951Z,11.29
2022-12-25T13:17:21.840Z,11.22
2022-12-25T13:19:50.758Z,11.15
2022-12-25T13:22:25.771Z,11.15
2022-12-25T13:24:56.940Z,11.15
2022-12-25T13:27:26.840Z,11.16
2022-12-25T13:29:53.374Z,11.14
2022-12-25T13:32:23.682Z,11.16
2022-12-25T13:34:51.347Z,11.05
2022-12-25T13:37:19.792Z,11.18
2022-12-25T13:39:49.962Z,11.06
2022-12-25T13:42:18.069Z,11.16
2022-12-25T13:44:48.767Z,11.17
2022-12-25T13:47:24.856Z,11.17
2022-12-25T13:49:53.120Z,11.15
2022-12-25T13:52:22.071Z,11.14
2022-12-25T13:54:57.426Z,11.12
2022-12-25T13:57:27.693Z,11.14
2022-12-25T13:59:55.989Z,11.13
2022-12-25T14:02:28.654Z,11.13
2022-12-25T14:04:55.416Z,11.04
2022-12-25T14:07:23.282Z,11.14
2022-12-25T14:09:54.673Z,11.11
2022-12-25T14:12:22.517Z,11.05
2022-12-25T14:14:50.690Z,11.01
2022-12-25T14:17:19.257Z,10.97
2022-12-25T14:19:45.765Z,10.66
2022-12-25T14:22:19.456Z,10.83
2022-12-25T14:24:47.239Z,10.96
2022-12-25T14:27:19.421Z,10.93
2022-12-25T14:29:48.097Z,10.91
2022-12-25T14:32:17.064Z,10.94
2022-12-25T14:34:47.200Z,10.81
2022-12-25T14:37:17.273Z,10.88
2022-12-25T14:39:44.303Z,10.87
2022-12-25T14:42:17.975Z,10.75
2022-12-25T14:44:57.916Z,10.87
2022-12-25T14:47:25.391Z,10.69
2022-12-25T14:49:53.266Z,10.75
2022-12-25T14:52:23.854Z,10.76
2022-12-25T14:54:54.062Z,10.74
2022-12-25T14:57:29.828Z,10.62
2022-12-25T15:00:03.292Z,10.74
2022-12-25T15:02:38.960Z,10.74
2022-12-25T15:05:22.526Z,10.70
2022-12-25T15:07:59.353Z,10.71
2022-12-25T15:10:58.938Z,10.67
2022-12-25T15:13:13.113Z,10.65
2022-12-25T15:15:47.656Z,10.70
2022-12-25T15:18:14.484Z,10.65
2022-12-25T15:20:42.390Z,10.65
2022-12-25T15:23:20.815Z,10.65
2022-12-25T15:25:47.880Z,10.59
2022-12-25T15:28:14.400Z,10.57
2022-12-25T15:30:41.086Z,10.49
2022-12-25T15:33:12.901Z,10.54
2022-12-25T15:35:39.520Z,10.51
2022-12-25T15:38:07.400Z,10.47
2022-12-25T15:40:33.959Z,10.46
2022-12-25T15:43:00.595Z,10.48
2022-12-25T15:45:29.356Z,10.48
2022-12-25T15:47:56.027Z,10.43
2022-12-25T15:50:22.811Z,10.44
2022-12-25T15:52:49.746Z,10.37
2022-12-25T15:55:17.902Z,10.44
2022-12-25T15:57:45.879Z,10.34
2022-12-25T16:00:16.514Z,10.28
2022-12-25T16:02:43.384Z,10.03
2022-12-25T16:05:10.742Z,10.30
2022-12-25T16:07:37.468Z,10.26
2022-12-25T16:10:05.191Z,10.20
2022-12-25T16:12:33.357Z,10.16
2022-12-25T16:14:59.890Z,10.23
2022-12-25T16:17:26.462Z,10.28
2022-12-25T16:19:53.006Z,10.23
2022-12-25T16:22:21.727Z,10.26
2022-12-25T16:24:48.398Z,10.30
2022-12-25T16:27:15.167Z,10.19
2022-12-25T16:29:43.279Z,10.19
2022-12-25T16:32:10.767Z,10.17
2022-12-25T16:34:37.319Z,10.23
2022-12-25T16:37:04.357Z,10.20
2022-12-25T16:39:30.998Z,10.17
2022-12-25T16:41:57.715Z,10.25
2022-12-25T16:44:24.244Z,10.21
2022-12-25T16:46:52.212Z,10.20
2022-12-25T16:49:18.774Z,10.09
2022-12-25T16:51:45.417Z,10.08
2022-12-25T16:54:11.958Z,10.05
2022-12-25T16:56:38.739Z,10.07
2022-12-25T16:59:05.262Z,10.18
2022-12-25T17:01:31.966Z,10.19
2022-12-25T17:04:00.130Z,10.18
2022-12-25T17:06:27.655Z,9.91
2022-12-25T17:08:57.869Z,10.18
2022-12-25T17:11:25.072Z,10.23
2022-12-25T17:13:51.678Z,10.03
2022-12-25T17:16:21.313Z,10.23
2022-12-25T17:18:48.210Z,10.28
2022-12-25T17:21:16.145Z,10.33
2022-12-25T17:23:42.664Z,10.35
2022-12-25T17:26:09.251Z,10.43
2022-12-25T17:28:36.070Z,10.35
2022-12-25T17:31:04.288Z,10.36
2022-12-25T17:33:31.262Z,10.36
2022-12-25T17:36:03.871Z,10.39
2022-12-25T17:38:33.064Z,10.32
2022-12-25T17:41:01.200Z,10.23
2022-12-25T17:43:28.217Z,10.38
2022-12-25T17:45:54.798Z,10.37
2022-12-25T17:48:21.405Z,10.33
2022-12-25T17:50:48.655Z,10.37
2022-12-25T17:53:15.288Z,10.34
2022-12-25T17:55:43.176Z,10.35
2022-12-25T17:58:10.402Z,10.36
2022-12-25T18:00:37.387Z,10.43
2022-12-25T18:03:10.872Z,10.35
2022-12-25T18:05:38.458Z,10.32
2022-12-25T18:08:05.460Z,10.35
2022-12-25T18:10:36.041Z,10.33
2022-12-25T18:13:04.424Z,10.32
2022-12-25T18:15:31.233Z,10.29
2022-12-25T18:17:57.959Z,10.28
2022-12-25T18:20:24.466Z,10.30
2022-12-25T18:22:51.138Z,10.22
2022-12-25T18:25:17.656Z,10.28
2022-12-25T18:27:44.247Z,10.30
2022-12-25T18:30:12.534Z,10.37
2022-12-25T18:32:39.132Z,10.41
2022-12-25T18:35:05.869Z,10.82
2022-12-25T18:37:39.461Z,11.31
2022-12-25T18:40:08.209Z,11.68
2022-12-25T18:42:34.716Z,12.00
2022-12-25T18:45:01.245Z,12.00
2022-12-25T18:47:29.200Z,12.20
2022-12-25T18:49:55.768Z,12.27
2022-12-25T18:52:48.594Z,12.43
2022-12-25T18:55:09.902Z,12.59
2022-12-25T18:57:36.437Z,12.69
2022-12-25T19:00:03.997Z,12.74
2022-12-25T19:02:32.134Z,12.74
2022-12-25T19:04:58.928Z,12.84
2022-12-25T19:07:25.450Z,12.86
2022-12-25T19:09:52.190Z,12.81
2022-12-25T19:12:18.735Z,13.00
2022-12-25T19:14:47.527Z,12.93
2022-12-25T19:17:14.936Z,12.93
2022-12-25T19:19:43.211Z,12.96
2022-12-25T19:22:10.162Z,13.00
2022-12-25T19:24:36.836Z,13.01
2022-12-25T19:27:03.975Z,13.15
2022-12-25T19:29:31.808Z,13.19
2022-12-25T19:31:58.703Z,13.17
2022-12-25T19:34:25.397Z,13.32
2022-12-25T19:36:53.281Z,13.28
2022-12-25T19:39:19.903Z,12.95
2022-12-25T19:41:47.438Z,13.27
2022-12-25T19:44:14.294Z,13.27
2022-12-25T19:46:41.416Z,13.29
2022-12-25T19:49:11.615Z,13.31
2022-12-25T19:51:40.838Z,13.04
2022-12-25T19:54:12.089Z,13.20
2022-12-25T19:56:38.936Z,13.25
2022-12-25T19:59:05.627Z,13.25
2022-12-25T20:01:32.380Z,13.19
2022-12-25T20:03:59.014Z,13.18
2022-12-25T20:06:28.427Z,13.21
2022-12-25T20:08:56.844Z,13.02
2022-12-25T20:11:26.856Z,13.23
2022-12-25T20:13:54.205Z,13.24
2022-12-25T20:16:22.566Z,13.05
2022-12-25T20:18:49.293Z,13.30
2022-12-25T20:21:17.863Z,13.29
2022-12-25T20:23:46.447Z,13.25
2022-12-25T20:26:14.559Z,13.28
2022-12-25T20:28:43.134Z,13.23
2022-12-25T20:31:14.061Z,13.28
2022-12-25T20:33:40.946Z,13.24
2022-12-25T20:36:07.999Z,13.24
2022-12-25T20:38:34.790Z,13.26
2022-12-25T20:41:26.251Z,13.07
2022-12-25T20:43:50.909Z,13.13
2022-12-25T20:46:17.753Z,13.10
2022-12-25T20:48:44.778Z,13.04
2022-12-25T20:51:13.757Z,13.02
2022-12-25T20:53:40.904Z,13.06
2022-12-25T20:56:09.854Z,13.02
2022-12-25T20:58:36.809Z,12.87
2022-12-25T21:01:06.795Z,12.96
2022-12-25T21:03:33.907Z,12.95
2022-12-25T21:06:01.101Z,12.86
2022-12-25T21:08:27.823Z,12.81
2022-12-25T21:10:56.751Z,12.78
2022-12-25T21:13:24.980Z,12.81
2022-12-25T21:15:52.580Z,12.80
2022-12-25T21:18:22.905Z,12.81
2022-12-25T21:20:52.199Z,12.80
2022-12-25T21:23:19.213Z,12.78
2022-12-25T21:25:45.841Z,12.86
2022-12-25T21:28:12.502Z,12.84
2022-12-25T21:30:39.373Z,12.87
2022-12-25T21:33:06.081Z,12.90
2022-12-25T21:35:37.105Z,12.96
2022-12-25T21:38:03.715Z,12.94
2022-12-25T21:40:32.888Z,12.87
2022-12-25T21:42:59.591Z,12.95
2022-12-25T21:45:26.106Z,12.95
2022-12-25T21:48:01.685Z,12.97
2022-12-25T21:50:32.478Z,13.02
2022-12-25T21:53:04.730Z,13.01
2022-12-25T21:55:31.342Z,12.93
2022-12-25T21:57:57.917Z,13.00
2022-12-25T22:00:24.457Z,13.04
2022-12-25T22:02:51.177Z,12.96
2022-12-25T22:05:17.816Z,13.05
2022-12-25T22:07:44.360Z,12.93
2022-12-25T22:10:12.208Z,13.04
2022-12-25T22:12:38.794Z,12.96
2022-12-25T22:15:08.724Z,13.06
2022-12-25T22:17:37.722Z,13.03
2022-12-25T22:20:05.889Z,13.10
2022-12-25T22:22:32.745Z,13.10
2022-12-25T22:25:01.277Z,13.08
2022-12-25T22:27:32.487Z,12.74
2022-12-25T22:29:59.132Z,12.89
2022-12-25T22:32:26.351Z,13.07
2022-12-25T22:34:52.956Z,13.09
2022-12-25T22:37:19.781Z,13.05
2022-12-25T22:39:46.723Z,12.98
2022-12-25T22:42:13.434Z,13.03
2022-12-25T22:44:41.353Z,13.04
2022-12-25T22:47:08.223Z,13.03
2022-12-25T22:49:34.780Z,13.01
2022-12-25T22:52:01.334Z,12.96
2022-12-25T22:54:30.680Z,12.96
2022-12-25T22:56:58.385Z,12.98
2022-12-25T23:01:53.124Z,13.01
2022-12-25T23:04:19.766Z,12.99
2022-12-25T23:06:46.878Z,12.98
2022-12-25T23:09:22.274Z,12.95
2022-12-25T23:11:51.171Z,12.94
2022-12-25T23:14:17.777Z,13.03
2022-12-25T23:16:44.420Z,13.03
2022-12-25T23:19:13.069Z,13.00
2022-12-25T23:21:40.436Z,12.96
2022-12-25T23:24:09.581Z,12.98
2022-12-25T23:26:36.509Z,12.98
2022-12-25T23:29:03.011Z,13.02
2022-12-25T23:31:32.246Z,13.00
2022-12-25T23:33:59.256Z,13.01
2022-12-25T23:36:28.443Z,13.03
2022-12-25T23:38:54.956Z,13.05
2022-12-25T23:41:21.540Z,13.00
2022-12-25T23:43:48.104Z,12.75
2022-12-25T23:46:15.229Z,12.99
2022-12-25T23:48:41.790Z,12.92
2022-12-25T23:51:08.577Z,13.01
2022-12-25T23:53:36.628Z,12.95
2022-12-25T23:56:04.025Z,13.00
2022-12-25T23:58:32.145Z,12.97
